Wallace, California
Current Conditions -  °F | °C
As of 5:55 PM on Sunday 21 Dec 2014 (Local Time) from KSCK Reporting Station
Clear Clear  
Wind Chill: 61°   Ceiling: Unl
Heat Index: 61°   Visibility: 10mi
Dew Point: 57°   Wind: 8mph
Humidity: 87%   Direction: 300°WNW
Pressure: 30.23"   Gusts: NA
Location:  38.19°N, 120.98°W
Report Text: KSCK 220155Z 30007KT 10SM CLR 16/14 A3023 RMK AO2 SLP236 T01610139
Loading
Personal Weather Stations






























Interactive Weather Map New forecast layout! Learn more

10-Day Weather Forecast

Advertisements
Track Severe Weather on mobile